Time;durP1;ratioP1;P1;durP2;ratioP2;P2;SDS_P1;SDS_P2;PMS_P1;PMS_P2;Temp;Humidity;BMP_temperature;BMP_pressure;BME280_temperature;BME280_humidity;BME280_pressure;Samples;Min_cycle;Max_cycle;Signal;HPM_P1;HPM_P2
2022/01/17 00:00:30;;;;;;;;;;;;;;;;;;1031137;28;796;-42
2022/01/17 00:01:00;;;;;;;;;;;;;;;;;;1031327;28;830;-42
2022/01/17 00:01:31;;;;;;;;;;;;;;;;;;1026358;28;1417;-42
2022/01/17 00:02:02;;;;;;;;;;;;;;;;;;1027039;28;859;-42
2022/01/17 00:02:32;;;;;;;;;;;;;;;;;;1026994;28;863;-42
2022/01/17 00:03:03;;;;;;;;;;;;;;;;;;1026926;28;867;-42
2022/01/17 00:03:34;;;;;;;;;;;;;;;;;;1031298;28;889;-42
2022/01/17 00:04:05;;;;;;;;;;;;;;;;;;1031107;28;954;-42
2022/01/17 00:04:35;;;;;;;;;;;;;;;;;;1031392;28;903;-40
2022/01/17 00:05:06;;;;;;;;;;;;;;;;;;1031245;28;796;-42
2022/01/17 00:05:37;;;;;;;;;;;;;;;;;;1031045;28;1034;-42
2022/01/17 00:06:07;;;;;;;;;;;;;;;;;;1031317;28;927;-42
2022/01/17 00:06:39;;;;;;;;;;;;;;;;;;1031217;28;878;-42
2022/01/17 00:07:09;;;;;;;;;;;;;;;;;;1031241;28;1132;-42
2022/01/17 00:07:39;;;;;;;;;;;;;;;;;;1031235;28;1272;-42
2022/01/17 00:08:10;;;;;;;;;;;;;;;;;;1031183;28;819;-42
2022/01/17 00:08:45;;;;;;;;;;;;;;;;;;1031346;28;949;-42
2022/01/17 00:09:16;;;;;;;;;;;;;;;;;;1031252;28;890;-42
2022/01/17 00:09:46;;;;;;;;;;;;;;;;;;1031100;28;926;-42
2022/01/17 00:10:17;;;;;;;;;;;;;;;;;;1031120;28;1126;-42
2022/01/17 00:10:47;;;;;;;;;;;;;;;;;;1030694;28;895;-43
2022/01/17 00:11:18;;;;;;;;;;;;;;;;;;1030958;28;855;-42
2022/01/17 00:11:49;;;;;;;;;;;;;;;;;;1031156;28;1595;-42
2022/01/17 00:12:20;;;;;;;;;;;;;;;;;;1031262;28;875;-42
2022/01/17 00:12:52;;;;;;;;;;;;;;;;;;1031314;28;900;-42
2022/01/17 00:13:28;;;;;;;;;;;;;;;;;;1030943;28;1272;-42
2022/01/17 00:13:58;;;;;;;;;;;;;;;;;;1027059;28;749;-42
2022/01/17 00:14:34;;;;;;;;;;;;;;;;;;1026642;28;1910;-42
2022/01/17 00:15:13;;;;;;;;;;;;;;;;;;1026951;28;950;-42
2022/01/17 00:15:49;;;;;;;;;;;;;;;;;;1028759;28;875;-42
2022/01/17 00:16:24;;;;;;;;;;;;;;;;;;1031287;28;772;-42
2022/01/17 00:17:08;;;;;;;;;;;;;;;;;;1031348;28;839;-42
2022/01/17 00:17:41;;;;;;;;;;;;;;;;;;1031183;28;879;-42
2022/01/17 00:19:56;;;;;;;;;;;;;;;;;;1031129;28;792;-42
2022/01/17 00:20:27;;;;;;;;;;;;;;;;;;1030996;28;946;-43
2022/01/17 00:20:57;;;;;;;;;;;;;;;;;;1031401;28;875;-42
2022/01/17 00:21:28;;;;;;;;;;;;;;;;;;1031208;28;627;-42
2022/01/17 00:21:58;;;;;;;;;;;;;;;;;;1031300;28;966;-42
2022/01/17 00:22:29;;;;;;;;;;;;;;;;;;1031095;28;856;-42
2022/01/17 00:22:59;;;;;;;;;;;;;;;;;;1031316;28;874;-42
2022/01/17 00:23:29;;;;;;;;;;;;;;;;;;1031075;28;970;-42
2022/01/17 00:24:00;;;;;;;;;;;;;;;;;;1031176;28;954;-42
2022/01/17 00:24:30;;;;;;;;;;;;;;;;;;1031218;28;1040;-41
2022/01/17 00:25:01;;;;;;;;;;;;;;;;;;1031428;28;958;-42
2022/01/17 00:25:31;;;;;;;;;;;;;;;;;;1031149;28;946;-41
2022/01/17 00:26:04;;;;;;;;;;;;;;;;;;1031370;28;1082;-41
2022/01/17 00:26:34;;;;;;;;;;;;;;;;;;1031252;28;855;-42
2022/01/17 00:27:04;;;;;;;;;;;;;;;;;;1031462;28;914;-42
2022/01/17 00:27:35;;;;;;;;;;;;;;;;;;1031315;28;816;-42
2022/01/17 00:28:06;;;;;;;;;;;;;;;;;;1031242;28;1001;-42
2022/01/17 00:28:36;;;;;;;;;;;;;;;;;;1031409;28;934;-42
2022/01/17 00:29:06;;;;;;;;;;;;;;;;;;1031356;28;953;-42
2022/01/17 00:29:37;;;;;;;;;;;;;;;;;;1031322;28;895;-42
2022/01/17 00:30:09;;;;;;;;;;;;;;;;;;1031431;28;866;-42
2022/01/17 00:30:39;;;;;;;;;;;;;;;;;;1031087;28;923;-42
2022/01/17 00:31:10;;;;;;;;;;;;;;;;;;1031440;28;844;-42
2022/01/17 00:31:40;;;;;;;;;;;;;;;;;;1031268;28;807;-42
2022/01/17 00:32:10;;;;;;;;;;;;;;;;;;1031413;28;906;-42
2022/01/17 00:32:41;;;;;;;;;;;;;;;;;;1031262;28;883;-42
2022/01/17 00:33:11;;;;;;;;;;;;;;;;;;1031362;28;875;-42
2022/01/17 00:33:41;;;;;;;;;;;;;;;;;;1031270;28;879;-42
2022/01/17 00:34:12;;;;;;;;;;;;;;;;;;1031379;28;1914;-43
2022/01/17 00:34:42;;;;;;;;;;;;;;;;;;1031136;28;815;-42
2022/01/17 00:35:12;;;;;;;;;;;;;;;;;;1031440;28;879;-42
2022/01/17 00:35:43;;;;;;;;;;;;;;;;;;1031072;28;843;-43
2022/01/17 00:36:13;;;;;;;;;;;;;;;;;;1031342;28;942;-42
2022/01/17 00:36:44;;;;;;;;;;;;;;;;;;1031318;28;1035;-42
2022/01/17 00:37:14;;;;;;;;;;;;;;;;;;1031309;28;972;-42
2022/01/17 00:37:44;;;;;;;;;;;;;;;;;;1031153;28;1695;-43
2022/01/17 00:38:15;;;;;;;;;;;;;;;;;;1031404;28;1000;-42
2022/01/17 00:38:45;;;;;;;;;;;;;;;;;;1031216;28;969;-42
2022/01/17 00:39:16;;;;;;;;;;;;;;;;;;1031520;28;863;-42
2022/01/17 00:39:46;;;;;;;;;;;;;;;;;;1030983;28;938;-42
2022/01/17 00:40:17;;;;;;;;;;;;;;;;;;1031453;28;870;-42
2022/01/17 00:40:47;;;;;;;;;;;;;;;;;;1031167;28;930;-42
2022/01/17 00:41:17;;;;;;;;;;;;;;;;;;1031237;28;967;-43
2022/01/17 00:41:47;;;;;;;;;;;;;;;;;;1031263;28;855;-42
2022/01/17 00:42:18;;;;;;;;;;;;;;;;;;1031445;28;882;-42
2022/01/17 00:42:48;;;;;;;;;;;;;;;;;;1031213;28;1032;-42
2022/01/17 00:43:18;;;;;;;;;;;;;;;;;;1031521;28;823;-42
2022/01/17 00:43:49;;;;;;;;;;;;;;;;;;1031184;28;929;-42
2022/01/17 00:44:21;;;;;;;;;;;;;;;;;;1031470;28;890;-42
2022/01/17 00:44:52;;;;;;;;;;;;;;;;;;1031282;28;875;-42
2022/01/17 00:45:27;;;;;;;;;;;;;;;;;;1031361;28;965;-42
2022/01/17 00:45:57;;;;;;;;;;;;;;;;;;1031337;28;961;-42
2022/01/17 00:46:28;;;;;;;;;;;;;;;;;;1031262;28;950;-41
2022/01/17 00:47:00;;;;;;;;;;;;;;;;;;1031383;28;898;-42
2022/01/17 00:47:30;;;;;;;;;;;;;;;;;;1031219;28;867;-42
2022/01/17 00:48:00;;;;;;;;;;;;;;;;;;1031380;28;850;-42
2022/01/17 00:48:31;;;;;;;;;;;;;;;;;;1031527;28;843;-42
2022/01/17 00:49:02;;;;;;;;;;;;;;;;;;1031043;28;1158;-42
2022/01/17 00:49:32;;;;;;;;;;;;;;;;;;1031388;28;962;-42
2022/01/17 00:50:03;;;;;;;;;;;;;;;;;;1031341;28;945;-42
2022/01/17 00:50:37;;;;;;;;;;;;;;;;;;1031208;28;929;-42
2022/01/17 00:51:07;;;;;;;;;;;;;;;;;;1031425;28;843;-42
2022/01/17 00:51:38;;;;;;;;;;;;;;;;;;1031195;28;874;-42
2022/01/17 00:52:08;;;;;;;;;;;;;;;;;;1031311;28;981;-42
2022/01/17 00:52:38;;;;;;;;;;;;;;;;;;1031364;28;953;-42
2022/01/17 00:53:09;;;;;;;;;;;;;;;;;;1031254;28;969;-42
2022/01/17 00:53:41;;;;;;;;;;;;;;;;;;1031289;28;934;-42
2022/01/17 00:54:11;;;;;;;;;;;;;;;;;;1031301;28;1911;-42
2022/01/17 00:54:41;;;;;;;;;;;;;;;;;;1031328;28;899;-42
2022/01/17 00:55:12;;;;;;;;;;;;;;;;;;1031267;28;1033;-42
2022/01/17 00:55:42;;;;;;;;;;;;;;;;;;1031004;28;958;-44
2022/01/17 00:56:12;;;;;;;;;;;;;;;;;;1031463;28;807;-42
2022/01/17 00:56:43;;;;;;;;;;;;;;;;;;1031211;28;819;-42
2022/01/17 00:57:13;;;;;;;;;;;;;;;;;;1031064;28;918;-42
2022/01/17 00:57:43;;;;;;;;;;;;;;;;;;1030835;28;1009;-42
2022/01/17 00:58:13;;;;;;;;;;;;;;;;;;1030947;28;930;-42
2022/01/17 00:58:44;;;;;;;;;;;;;;;;;;1031005;28;997;-42
2022/01/17 00:59:14;;;;;;;;;;;;;;;;;;1031382;28;795;-42
2022/01/17 00:59:44;;;;;;;;;;;;;;;;;;1031082;28;858;-42
2022/01/17 01:00:15;;;;;;;;;;;;;;;;;;1031241;28;914;-42
2022/01/17 01:00:45;;;;;;;;;;;;;;;;;;1031153;28;875;-42
2022/01/17 01:01:16;;;;;;;;;;;;;;;;;;1031407;28;965;-42
2022/01/17 01:01:46;;;;;;;;;;;;;;;;;;1031113;28;843;-42
2022/01/17 01:02:17;;;;;;;;;;;;;;;;;;1031316;28;977;-42
2022/01/17 01:02:47;;;;;;;;;;;;;;;;;;1031310;28;873;-42
2022/01/17 01:03:17;;;;;;;;;;;;;;;;;;1031384;28;957;-42
2022/01/17 01:03:48;;;;;;;;;;;;;;;;;;1031106;28;879;-42
2022/01/17 01:04:18;;;;;;;;;;;;;;;;;;1031357;28;907;-42
2022/01/17 01:04:49;;;;;;;;;;;;;;;;;;1031223;28;799;-42
2022/01/17 01:05:19;;;;;;;;;;;;;;;;;;1031325;28;934;-42
2022/01/17 01:05:49;;;;;;;;;;;;;;;;;;1031126;28;827;-42
2022/01/17 01:06:20;;;;;;;;;;;;;;;;;;1031334;28;846;-42
2022/01/17 01:06:50;;;;;;;;;;;;;;;;;;1031194;28;958;-42
2022/01/17 01:07:21;;;;;;;;;;;;;;;;;;1031142;28;1680;-42
2022/01/17 01:07:53;;;;;;;;;;;;;;;;;;1031294;28;933;-42
2022/01/17 01:08:24;;;;;;;;;;;;;;;;;;1031244;28;950;-42
2022/01/17 01:08:54;;;;;;;;;;;;;;;;;;1031240;28;1037;-42
2022/01/17 01:09:28;;;;;;;;;;;;;;;;;;1031238;28;967;-42
2022/01/17 01:10:10;;;;;;;;;;;;;;;;;;1031167;28;866;-42
2022/01/17 01:10:41;;;;;;;;;;;;;;;;;;1031178;28;795;-41
2022/01/17 01:11:11;;;;;;;;;;;;;;;;;;1031337;28;756;-42
2022/01/17 01:11:41;;;;;;;;;;;;;;;;;;1031209;28;894;-42
2022/01/17 01:12:12;;;;;;;;;;;;;;;;;;1031296;28;891;-42
2022/01/17 01:12:44;;;;;;;;;;;;;;;;;;1031164;28;839;-42
2022/01/17 01:13:17;;;;;;;;;;;;;;;;;;1031296;28;1225;-42
2022/01/17 01:13:47;;;;;;;;;;;;;;;;;;1031132;28;950;-41
2022/01/17 01:14:17;;;;;;;;;;;;;;;;;;1031246;28;1981;-42
2022/01/17 01:14:48;;;;;;;;;;;;;;;;;;1031292;28;867;-42
2022/01/17 01:15:22;;;;;;;;;;;;;;;;;;1031305;28;867;-42
2022/01/17 01:16:36;;;;;;;;;;;;;;;;;;1031168;28;831;-42
2022/01/17 01:17:14;;;;;;;;;;;;;;;;;;1031243;28;894;-42
2022/01/17 01:17:53;;;;;;;;;;;;;;;;;;1031057;28;914;-42
2022/01/17 01:19:19;;;;;;;;;;;;;;;;;;1031197;28;820;-42
2022/01/17 01:19:59;;;;;;;;;;;;;;;;;;1031167;28;887;-42
2022/01/17 01:28:13;;;;;;;;;;;;;;;;;;1031976;28;819;-42
2022/01/17 01:28:44;;;;;;;;;;;;;;;;;;1031963;28;848;-42
2022/01/17 01:29:14;;;;;;;;;;;;;;;;;;1031981;28;942;-41
2022/01/17 01:29:48;;;;;;;;;;;;;;;;;;1031838;28;855;-42
2022/01/17 01:30:20;;;;;;;;;;;;;;;;;;1031916;28;1658;-42
2022/01/17 01:30:53;;;;;;;;;;;;;;;;;;1031998;28;882;-42
2022/01/17 01:31:38;;;;;;;;;;;;;;;;;;1031869;28;883;-42
2022/01/17 01:32:10;;;;;;;;;;;;;;;;;;1031900;28;1006;-42
2022/01/17 01:32:46;;;;;;;;;;;;;;;;;;1031933;28;879;-42
2022/01/17 01:33:25;;;;;;;;;;;;;;;;;;1031975;28;950;-42
2022/01/17 01:34:03;;;;;;;;;;;;;;;;;;1031812;28;922;-42
2022/01/17 01:34:38;;;;;;;;;;;;;;;;;;1031982;28;1987;-42
2022/01/17 01:35:09;;;;;;;;;;;;;;;;;;1031743;28;926;-42
2022/01/17 01:35:46;;;;;;;;;;;;;;;;;;1031931;28;855;-42
2022/01/17 01:36:22;;;;;;;;;;;;;;;;;;1031869;28;938;-42
2022/01/17 01:36:53;;;;;;;;;;;;;;;;;;1031937;28;907;-42
2022/01/17 01:37:23;;;;;;;;;;;;;;;;;;1031955;28;911;-42
2022/01/17 01:37:54;;;;;;;;;;;;;;;;;;1031795;28;787;-42
2022/01/17 01:38:24;;;;;;;;;;;;;;;;;;1031986;28;834;-42
2022/01/17 01:38:55;;;;;;;;;;;;;;;;;;1031912;28;1111;-42
2022/01/17 01:39:25;;;;;;;;;;;;;;;;;;1031822;28;922;-43
2022/01/17 01:39:56;;;;;;;;;;;;;;;;;;1031894;28;1143;-43
2022/01/17 01:40:26;;;;;;;;;;;;;;;;;;1031767;28;887;-43
2022/01/17 01:40:57;;;;;;;;;;;;;;;;;;1031945;28;989;-43
2022/01/17 01:41:28;;;;;;;;;;;;;;;;;;1031948;28;875;-42
2022/01/17 01:41:59;;;;;;;;;;;;;;;;;;1031758;28;1045;-42
2022/01/17 01:42:32;;;;;;;;;;;;;;;;;;1031962;28;947;-42
2022/01/17 01:43:02;;;;;;;;;;;;;;;;;;1031804;28;906;-42
2022/01/17 01:43:32;;;;;;;;;;;;;;;;;;1032051;28;914;-42
2022/01/17 01:44:03;;;;;;;;;;;;;;;;;;1031804;28;962;-43
2022/01/17 01:44:34;;;;;;;;;;;;;;;;;;1031925;28;775;-42
2022/01/17 01:45:07;;;;;;;;;;;;;;;;;;1031951;28;879;-42
2022/01/17 01:45:37;;;;;;;;;;;;;;;;;;1031823;28;859;-42
2022/01/17 01:46:10;;;;;;;;;;;;;;;;;;1031885;28;859;-42
2022/01/17 01:46:41;;;;;;;;;;;;;;;;;;1031900;28;669;-42
2022/01/17 01:47:12;;;;;;;;;;;;;;;;;;1031923;28;906;-42
2022/01/17 01:47:43;;;;;;;;;;;;;;;;;;1031836;28;883;-43
2022/01/17 01:48:13;;;;;;;;;;;;;;;;;;1031815;28;879;-42
2022/01/17 01:48:44;;;;;;;;;;;;;;;;;;1030635;28;1142;-42
2022/01/17 01:49:15;;;;;;;;;;;;;;;;;;1027949;28;942;-43
2022/01/17 01:49:45;;;;;;;;;;;;;;;;;;1027795;28;855;-42
2022/01/17 01:50:16;;;;;;;;;;;;;;;;;;1027811;28;919;-42
2022/01/17 01:50:46;;;;;;;;;;;;;;;;;;1027847;28;803;-42
2022/01/17 01:51:17;;;;;;;;;;;;;;;;;;1027955;28;883;-42
2022/01/17 01:51:47;;;;;;;;;;;;;;;;;;1027818;28;808;-42
2022/01/17 01:52:18;;;;;;;;;;;;;;;;;;1027825;28;903;-42
2022/01/17 01:52:48;;;;;;;;;;;;;;;;;;1027828;28;895;-42
2022/01/17 01:53:18;;;;;;;;;;;;;;;;;;1027867;28;965;-42
2022/01/17 01:53:49;;;;;;;;;;;;;;;;;;1027669;28;919;-42
2022/01/17 01:54:19;;;;;;;;;;;;;;;;;;1027843;28;1977;-42
2022/01/17 01:54:50;;;;;;;;;;;;;;;;;;1027854;28;863;-42
2022/01/17 01:55:21;;;;;;;;;;;;;;;;;;1027741;28;895;-42
2022/01/17 01:55:52;;;;;;;;;;;;;;;;;;1027960;28;958;-42
2022/01/17 01:56:23;;;;;;;;;;;;;;;;;;1027687;28;649;-42
2022/01/17 01:56:53;;;;;;;;;;;;;;;;;;1027863;28;978;-41
2022/01/17 01:57:23;;;;;;;;;;;;;;;;;;1027822;28;934;-42
2022/01/17 01:57:54;;;;;;;;;;;;;;;;;;1027871;28;931;-42
2022/01/17 01:58:25;;;;;;;;;;;;;;;;;;1027768;28;855;-42
2022/01/17 01:58:57;;;;;;;;;;;;;;;;;;1027882;28;875;-42
2022/01/17 01:59:27;;;;;;;;;;;;;;;;;;1027745;28;942;-42
2022/01/17 01:59:58;;;;;;;;;;;;;;;;;;1027897;28;1090;-42
2022/01/17 02:00:28;;;;;;;;;;;;;;;;;;1027597;28;915;-42
2022/01/17 02:01:00;;;;;;;;;;;;;;;;;;1027849;28;802;-42
2022/01/17 02:01:30;;;;;;;;;;;;;;;;;;1027685;28;965;-42
2022/01/17 02:02:01;;;;;;;;;;;;;;;;;;1027891;28;815;-42
2022/01/17 02:02:31;;;;;;;;;;;;;;;;;;1027825;28;851;-42
2022/01/17 02:03:01;;;;;;;;;;;;;;;;;;1027727;28;954;-42
2022/01/17 02:03:32;;;;;;;;;;;;;;;;;;1027718;28;954;-42
2022/01/17 02:04:03;;;;;;;;;;;;;;;;;;1027876;28;816;-42
2022/01/17 02:04:33;;;;;;;;;;;;;;;;;;1027839;28;975;-42
2022/01/17 02:05:04;;;;;;;;;;;;;;;;;;1027890;28;993;-42
2022/01/17 02:05:34;;;;;;;;;;;;;;;;;;1027598;28;900;-42
2022/01/17 02:06:05;;;;;;;;;;;;;;;;;;1027932;28;780;-42
2022/01/17 02:06:35;;;;;;;;;;;;;;;;;;1027811;28;851;-42
2022/01/17 02:07:05;;;;;;;;;;;;;;;;;;1027835;28;950;-42
2022/01/17 02:07:36;;;;;;;;;;;;;;;;;;1027776;28;803;-42
2022/01/17 02:08:10;;;;;;;;;;;;;;;;;;1031775;28;1726;-42
2022/01/17 02:08:40;;;;;;;;;;;;;;;;;;1031908;28;815;-42
2022/01/17 02:09:11;;;;;;;;;;;;;;;;;;1031758;28;934;-42
2022/01/17 02:09:42;;;;;;;;;;;;;;;;;;1031682;28;879;-42
2022/01/17 02:10:13;;;;;;;;;;;;;;;;;;1031906;28;1021;-42
2022/01/17 02:10:43;;;;;;;;;;;;;;;;;;1031537;28;752;-42
2022/01/17 02:11:13;;;;;;;;;;;;;;;;;;1031777;28;985;-42
2022/01/17 02:11:44;;;;;;;;;;;;;;;;;;1031796;28;1056;-42
2022/01/17 02:12:20;;;;;;;;;;;;;;;;;;1031715;28;815;-42
2022/01/17 02:12:50;;;;;;;;;;;;;;;;;;1031914;28;1284;-42
2022/01/17 02:13:21;;;;;;;;;;;;;;;;;;1031639;28;839;-42
2022/01/17 02:13:51;;;;;;;;;;;;;;;;;;1031860;28;946;-42
2022/01/17 02:14:21;;;;;;;;;;;;;;;;;;1031665;28;1977;-42
2022/01/17 02:14:54;;;;;;;;;;;;;;;;;;1031838;28;796;-42
2022/01/17 02:15:24;;;;;;;;;;;;;;;;;;1031751;28;843;-41
2022/01/17 02:16:01;;;;;;;;;;;;;;;;;;1031666;28;1156;-42
2022/01/17 02:16:32;;;;;;;;;;;;;;;;;;1031810;28;918;-42
2022/01/17 02:17:03;;;;;;;;;;;;;;;;;;1031850;28;1612;-42
2022/01/17 02:17:40;;;;;;;;;;;;;;;;;;1031565;28;815;-42
2022/01/17 02:18:12;;;;;;;;;;;;;;;;;;1031928;28;771;-41
2022/01/17 02:18:43;;;;;;;;;;;;;;;;;;1031710;28;937;-42
2022/01/17 02:19:18;;;;;;;;;;;;;;;;;;1031780;28;973;-42
2022/01/17 02:19:52;;;;;;;;;;;;;;;;;;1031671;28;1139;-42
2022/01/17 02:21:09;;;;;;;;;;;;;;;;;;1031641;28;973;-42
2022/01/17 02:21:31;;;;;;;;;;;;;;;;;;1031300;28;1471;-42
2022/01/17 02:22:02;;;;;;;;;;;;;;;;;;1031822;28;819;-42
2022/01/17 02:22:33;;;;;;;;;;;;;;;;;;1031792;28;957;-42
2022/01/17 02:23:04;;;;;;;;;;;;;;;;;;1031886;28;970;-42
2022/01/17 02:23:35;;;;;;;;;;;;;;;;;;1031639;28;1017;-42
2022/01/17 02:24:05;;;;;;;;;;;;;;;;;;1031768;28;954;-42
2022/01/17 02:24:37;;;;;;;;;;;;;;;;;;1031733;28;998;-42
2022/01/17 02:25:07;;;;;;;;;;;;;;;;;;1031800;28;954;-42
2022/01/17 02:25:37;;;;;;;;;;;;;;;;;;1031504;28;938;-42
2022/01/17 02:26:08;;;;;;;;;;;;;;;;;;1032428;28;1339;-42
2022/01/17 02:26:38;;;;;;;;;;;;;;;;;;1031161;28;1022;-42
2022/01/17 02:27:09;;;;;;;;;;;;;;;;;;1031522;28;835;-42
2022/01/17 02:27:39;;;;;;;;;;;;;;;;;;1031212;28;915;-42
2022/01/17 02:28:09;;;;;;;;;;;;;;;;;;1031434;28;899;-42
2022/01/17 02:28:44;;;;;;;;;;;;;;;;;;1035783;28;948;-42
2022/01/17 02:29:14;;;;;;;;;;;;;;;;;;1035799;28;802;-42
2022/01/17 02:29:45;;;;;;;;;;;;;;;;;;1035641;28;902;-42
2022/01/17 02:30:21;;;;;;;;;;;;;;;;;;1035718;28;891;-42
2022/01/17 02:30:51;;;;;;;;;;;;;;;;;;1035805;28;846;-42
2022/01/17 02:31:22;;;;;;;;;;;;;;;;;;1035837;28;890;-42
2022/01/17 02:31:52;;;;;;;;;;;;;;;;;;1035682;28;823;-42
2022/01/17 02:32:23;;;;;;;;;;;;;;;;;;1035699;28;905;-42
2022/01/17 02:32:53;;;;;;;;;;;;;;;;;;1035722;28;850;-42
2022/01/17 02:33:24;;;;;;;;;;;;;;;;;;1035615;28;961;-42
2022/01/17 02:33:54;;;;;;;;;;;;;;;;;;1035122;28;945;-42
2022/01/17 02:34:25;;;;;;;;;;;;;;;;;;1035532;28;1907;-42
2022/01/17 02:35:15;;;;;;;;;;;;;;;;;;1035691;28;949;-42
2022/01/17 02:35:49;;;;;;;;;;;;;;;;;;1035648;28;1132;-42
2022/01/17 02:36:21;;;;;;;;;;;;;;;;;;1035750;28;969;-42
2022/01/17 02:36:52;;;;;;;;;;;;;;;;;;1035743;28;881;-42
2022/01/17 02:37:22;;;;;;;;;;;;;;;;;;1035663;28;890;-42
2022/01/17 02:37:52;;;;;;;;;;;;;;;;;;1035701;28;914;-42
2022/01/17 02:38:23;;;;;;;;;;;;;;;;;;1035733;28;882;-42
2022/01/17 02:38:53;;;;;;;;;;;;;;;;;;1035666;28;914;-42
2022/01/17 02:39:23;;;;;;;;;;;;;;;;;;1035894;28;800;-42
2022/01/17 02:39:54;;;;;;;;;;;;;;;;;;1035533;28;815;-42
2022/01/17 02:40:24;;;;;;;;;;;;;;;;;;1035596;28;926;-42
2022/01/17 02:40:55;;;;;;;;;;;;;;;;;;1035676;28;946;-42
2022/01/17 02:41:29;;;;;;;;;;;;;;;;;;1035839;28;838;-42
2022/01/17 02:42:02;;;;;;;;;;;;;;;;;;1035816;28;905;-42
2022/01/17 02:42:35;;;;;;;;;;;;;;;;;;1035443;28;986;-42
2022/01/17 02:43:07;;;;;;;;;;;;;;;;;;1035844;28;811;-42
2022/01/17 02:43:38;;;;;;;;;;;;;;;;;;1035576;28;854;-42
2022/01/17 02:44:09;;;;;;;;;;;;;;;;;;1035823;28;875;-42
2022/01/17 02:44:44;;;;;;;;;;;;;;;;;;1035609;28;780;-42
2022/01/17 02:45:33;;;;;;;;;;;;;;;;;;1035633;28;807;-42
2022/01/17 02:46:34;;;;;;;;;;;;;;;;;;1035484;28;1057;-42
2022/01/17 02:47:04;;;;;;;;;;;;;;;;;;1035818;28;894;-41
2022/01/17 02:47:35;;;;;;;;;;;;;;;;;;1035572;28;867;-42
2022/01/17 02:48:06;;;;;;;;;;;;;;;;;;1035841;28;969;-42
2022/01/17 02:48:39;;;;;;;;;;;;;;;;;;1035631;28;1239;-42
2022/01/17 02:49:10;;;;;;;;;;;;;;;;;;1035597;28;1696;-42
2022/01/17 02:49:41;;;;;;;;;;;;;;;;;;1035639;28;850;-42
2022/01/17 02:50:11;;;;;;;;;;;;;;;;;;1035828;28;875;-42
2022/01/17 02:50:41;;;;;;;;;;;;;;;;;;1035417;28;1060;-42
2022/01/17 02:51:12;;;;;;;;;;;;;;;;;;1035761;28;941;-42
2022/01/17 02:51:47;;;;;;;;;;;;;;;;;;1035481;28;980;-42
2022/01/17 02:52:20;;;;;;;;;;;;;;;;;;1035810;28;815;-42
2022/01/17 02:52:51;;;;;;;;;;;;;;;;;;1035711;28;1141;-42
2022/01/17 02:53:21;;;;;;;;;;;;;;;;;;1035551;28;1161;-42
2022/01/17 02:53:52;;;;;;;;;;;;;;;;;;1035688;28;855;-42
2022/01/17 02:54:22;;;;;;;;;;;;;;;;;;1035573;28;1923;-42
2022/01/17 02:54:53;;;;;;;;;;;;;;;;;;1035742;28;839;-42
2022/01/17 02:55:23;;;;;;;;;;;;;;;;;;1035739;28;890;-42
2022/01/17 02:55:56;;;;;;;;;;;;;;;;;;1035472;28;930;-42
2022/01/17 02:56:26;;;;;;;;;;;;;;;;;;1035935;28;902;-42
2022/01/17 02:56:57;;;;;;;;;;;;;;;;;;1035547;28;843;-42
2022/01/17 02:57:31;;;;;;;;;;;;;;;;;;1035798;28;815;-42
2022/01/17 02:58:01;;;;;;;;;;;;;;;;;;1035613;28;1565;-42
2022/01/17 02:58:33;;;;;;;;;;;;;;;;;;1035708;28;910;-42
2022/01/17 02:59:03;;;;;;;;;;;;;;;;;;1035767;28;838;-42
2022/01/17 02:59:34;;;;;;;;;;;;;;;;;;1035533;28;870;-42
2022/01/17 03:00:08;;;;;;;;;;;;;;;;;;1035721;28;827;-42
2022/01/17 03:00:39;;;;;;;;;;;;;;;;;;1035509;28;1593;-42
2022/01/17 03:01:14;;;;;;;;;;;;;;;;;;1035660;28;934;-42
2022/01/17 03:01:44;;;;;;;;;;;;;;;;;;1035664;28;890;-42
2022/01/17 03:02:15;;;;;;;;;;;;;;;;;;1035561;28;934;-42
2022/01/17 03:02:48;;;;;;;;;;;;;;;;;;1035786;28;865;-42
2022/01/17 03:03:23;;;;;;;;;;;;;;;;;;1035660;28;945;-42
2022/01/17 03:03:54;;;;;;;;;;;;;;;;;;1035406;28;942;-42
2022/01/17 03:04:24;;;;;;;;;;;;;;;;;;1035743;28;989;-42
2022/01/17 03:04:55;;;;;;;;;;;;;;;;;;1035603;28;866;-42
2022/01/17 03:05:25;;;;;;;;;;;;;;;;;;1035729;28;883;-42
2022/01/17 03:05:57;;;;;;;;;;;;;;;;;;1035513;28;851;-42
2022/01/17 03:06:27;;;;;;;;;;;;;;;;;;1035695;28;889;-42
2022/01/17 03:06:58;;;;;;;;;;;;;;;;;;1035605;28;835;-42
2022/01/17 03:07:28;;;;;;;;;;;;;;;;;;1035672;28;780;-42
2022/01/17 03:07:58;;;;;;;;;;;;;;;;;;1032470;28;1026;-42
2022/01/17 03:08:30;;;;;;;;;;;;;;;;;;1031747;28;1033;-42
2022/01/17 03:09:00;;;;;;;;;;;;;;;;;;1031431;28;882;-42
2022/01/17 03:09:40;;;;;;;;;;;;;;;;;;1031673;28;989;-42
2022/01/17 03:10:21;;;;;;;;;;;;;;;;;;1031540;28;875;-42
2022/01/17 03:10:52;;;;;;;;;;;;;;;;;;1031703;28;911;-42
2022/01/17 03:11:24;;;;;;;;;;;;;;;;;;1031288;28;653;-42
2022/01/17 03:11:55;;;;;;;;;;;;;;;;;;1031048;28;894;-42
2022/01/17 03:12:25;;;;;;;;;;;;;;;;;;1031298;28;942;-42
2022/01/17 03:13:04;;;;;;;;;;;;;;;;;;1031009;28;1367;-42
2022/01/17 03:13:37;;;;;;;;;;;;;;;;;;1031565;28;950;-42
2022/01/17 03:14:07;;;;;;;;;;;;;;;;;;1031514;28;875;-42
2022/01/17 03:14:37;;;;;;;;;;;;;;;;;;1031501;28;1968;-42
2022/01/17 03:15:08;;;;;;;;;;;;;;;;;;1031604;28;819;-42
2022/01/17 03:15:39;;;;;;;;;;;;;;;;;;1031320;28;1153;-42
2022/01/17 03:16:12;;;;;;;;;;;;;;;;;;1031527;28;946;-42
2022/01/17 03:16:46;;;;;;;;;;;;;;;;;;1031554;28;937;-42
2022/01/17 03:17:17;;;;;;;;;;;;;;;;;;1031593;28;914;-42
2022/01/17 03:17:47;;;;;;;;;;;;;;;;;;1031585;28;815;-42
2022/01/17 03:18:17;;;;;;;;;;;;;;;;;;1031412;28;866;-42
2022/01/17 03:18:51;;;;;;;;;;;;;;;;;;1031636;28;807;-42
2022/01/17 03:19:21;;;;;;;;;;;;;;;;;;1031469;28;879;-42
2022/01/17 03:19:52;;;;;;;;;;;;;;;;;;1031538;28;811;-42
2022/01/17 03:20:22;;;;;;;;;;;;;;;;;;1031425;28;962;-42
2022/01/17 03:20:53;;;;;;;;;;;;;;;;;;1031447;28;1108;-42
2022/01/17 03:21:25;;;;;;;;;;;;;;;;;;1031598;28;950;-42
2022/01/17 03:21:55;;;;;;;;;;;;;;;;;;1031467;28;823;-42
2022/01/17 03:22:26;;;;;;;;;;;;;;;;;;1031494;28;950;-42
2022/01/17 03:22:56;;;;;;;;;;;;;;;;;;1031520;28;827;-42
2022/01/17 03:23:27;;;;;;;;;;;;;;;;;;1031567;28;911;-42
2022/01/17 03:23:57;;;;;;;;;;;;;;;;;;1031452;28;760;-42
2022/01/17 03:24:28;;;;;;;;;;;;;;;;;;1031498;28;899;-42
2022/01/17 03:24:59;;;;;;;;;;;;;;;;;;1031845;28;1501;-42
2022/01/17 03:25:29;;;;;;;;;;;;;;;;;;1028944;28;700;-42
2022/01/17 03:26:00;;;;;;;;;;;;;;;;;;1031065;28;816;-42
2022/01/17 03:26:33;;;;;;;;;;;;;;;;;;1031132;28;828;-42
2022/01/17 03:27:04;;;;;;;;;;;;;;;;;;1031732;28;990;-42
2022/01/17 03:27:34;;;;;;;;;;;;;;;;;;1035382;28;910;-42
2022/01/17 03:28:05;;;;;;;;;;;;;;;;;;1035635;28;1001;-42
2022/01/17 03:28:36;;;;;;;;;;;;;;;;;;1035417;28;957;-42
2022/01/17 03:29:06;;;;;;;;;;;;;;;;;;1035572;28;1016;-42
2022/01/17 03:29:37;;;;;;;;;;;;;;;;;;1035465;28;887;-41
2022/01/17 03:30:07;;;;;;;;;;;;;;;;;;1035549;28;906;-42
2022/01/17 03:30:38;;;;;;;;;;;;;;;;;;1035443;28;1009;-41
2022/01/17 03:31:08;;;;;;;;;;;;;;;;;;1035547;28;784;-41
2022/01/17 03:31:39;;;;;;;;;;;;;;;;;;1035483;28;815;-41
2022/01/17 03:32:09;;;;;;;;;;;;;;;;;;1035615;28;934;-42
2022/01/17 03:32:40;;;;;;;;;;;;;;;;;;1035466;28;803;-41
2022/01/17 03:33:11;;;;;;;;;;;;;;;;;;1035521;28;946;-42
2022/01/17 03:33:42;;;;;;;;;;;;;;;;;;1035544;28;867;-41
2022/01/17 03:34:12;;;;;;;;;;;;;;;;;;1035536;28;853;-41
2022/01/17 03:34:42;;;;;;;;;;;;;;;;;;1035621;28;1966;-42
2022/01/17 03:35:13;;;;;;;;;;;;;;;;;;1035457;28;887;-41
2022/01/17 03:35:44;;;;;;;;;;;;;;;;;;1035533;28;942;-42
2022/01/17 03:36:14;;;;;;;;;;;;;;;;;;1035538;28;795;-42
2022/01/17 03:36:45;;;;;;;;;;;;;;;;;;1035562;28;851;-42
2022/01/17 03:37:16;;;;;;;;;;;;;;;;;;1035424;28;973;-41
2022/01/17 03:37:47;;;;;;;;;;;;;;;;;;1035510;28;895;-42
2022/01/17 03:38:18;;;;;;;;;;;;;;;;;;1035439;28;981;-42
2022/01/17 03:38:50;;;;;;;;;;;;;;;;;;1035606;28;942;-42
2022/01/17 03:39:20;;;;;;;;;;;;;;;;;;1035386;28;826;-42
2022/01/17 03:39:50;;;;;;;;;;;;;;;;;;1035579;28;918;-42
2022/01/17 03:40:21;;;;;;;;;;;;;;;;;;1035336;28;982;-41
2022/01/17 03:40:51;;;;;;;;;;;;;;;;;;1035563;28;866;-41
2022/01/17 03:41:22;;;;;;;;;;;;;;;;;;1035468;28;909;-42
2022/01/17 03:41:53;;;;;;;;;;;;;;;;;;1035449;28;851;-42
2022/01/17 03:42:24;;;;;;;;;;;;;;;;;;1035680;28;828;-41
2022/01/17 03:42:54;;;;;;;;;;;;;;;;;;1035537;28;884;-41
2022/01/17 03:43:25;;;;;;;;;;;;;;;;;;1035441;28;989;-42
2022/01/17 03:43:55;;;;;;;;;;;;;;;;;;1035417;28;812;-41
2022/01/17 03:44:25;;;;;;;;;;;;;;;;;;1035635;28;780;-42
2022/01/17 03:44:56;;;;;;;;;;;;;;;;;;1035298;28;891;-42
2022/01/17 03:45:26;;;;;;;;;;;;;;;;;;1035538;28;812;-42
2022/01/17 03:45:57;;;;;;;;;;;;;;;;;;1035223;28;995;-42
2022/01/17 03:46:27;;;;;;;;;;;;;;;;;;1035787;28;886;-42
2022/01/17 03:46:57;;;;;;;;;;;;;;;;;;1035447;28;819;-42
2022/01/17 03:47:28;;;;;;;;;;;;;;;;;;1035526;28;965;-42
2022/01/17 03:47:58;;;;;;;;;;;;;;;;;;1035307;28;899;-42
2022/01/17 03:48:29;;;;;;;;;;;;;;;;;;1035490;28;1002;-42
2022/01/17 03:49:00;;;;;;;;;;;;;;;;;;1035372;28;1141;-42
2022/01/17 03:49:30;;;;;;;;;;;;;;;;;;1035590;28;945;-42
2022/01/17 03:50:01;;;;;;;;;;;;;;;;;;1035186;28;1041;-42
2022/01/17 03:50:31;;;;;;;;;;;;;;;;;;1035579;28;820;-42
2022/01/17 03:51:02;;;;;;;;;;;;;;;;;;1035342;28;946;-42
2022/01/17 03:51:32;;;;;;;;;;;;;;;;;;1035388;28;938;-42
2022/01/17 03:52:03;;;;;;;;;;;;;;;;;;1035500;28;859;-42
2022/01/17 03:52:33;;;;;;;;;;;;;;;;;;1035420;28;935;-42
2022/01/17 03:53:04;;;;;;;;;;;;;;;;;;1035483;28;973;-42
2022/01/17 03:53:34;;;;;;;;;;;;;;;;;;1035459;28;812;-42